Time;durP1;ratioP1;P1;durP2;ratioP2;P2;SDS_P1;SDS_P2;PMS_P1;PMS_P2;Temp;Humidity;BMP_temperature;BMP_pressure;BME280_temperature;BME280_humidity;BME280_pressure;Samples;Min_cycle;Max_cycle;Signal;HPM_P1;HPM_P2
2024/02/01 00:00:30;;;;;;;16.77;10.00;;;;;;;28.90;65.27;101353.53;5033378;28;70498;-43
2024/02/01 00:03:04;;;;;;;11.80;9.80;;;;;;;29.26;68.67;101408.47;5035131;28;66293;-42
2024/02/01 00:05:34;;;;;;;11.85;10.00;;;;;;;29.28;68.07;101407.25;5036755;28;70187;-43
2024/02/01 00:08:06;;;;;;;23.02;10.15;;;;;;;29.35;66.75;101416.22;5045830;28;66447;-44
2024/02/01 00:10:36;;;;;;;19.48;10.38;;;;;;;29.16;68.88;101381.78;5032032;28;70289;-42
2024/02/01 00:13:07;;;;;;;11.82;9.52;;;;;;;29.41;68.82;101417.31;5033423;28;66673;-43
2024/02/01 00:15:38;;;;;;;16.85;10.38;;;;;;;29.46;68.07;101419.44;5034007;28;70671;-42
2024/02/01 00:18:08;;;;;;;14.20;10.20;;;;;;;29.45;69.26;101428.53;5042081;28;65396;-43
2024/02/01 00:20:39;;;;;;;16.10;11.18;;;;;;;29.45;69.31;101418.59;5038822;28;69535;-43
2024/02/01 00:23:10;;;;;;;25.97;11.03;;;;;;;29.48;69.09;101422.78;5042224;28;66306;-44
2024/02/01 00:25:41;;;;;;;11.65;10.30;;;;;;;29.48;69.11;101428.19;5029768;28;70251;-42
2024/02/01 00:28:12;;;;;;;14.30;10.13;;;;;;;29.45;70.39;101417.72;5038745;28;65732;-42
2024/02/01 00:30:42;;;;;;;18.95;11.48;;;;;;;29.59;69.88;101436.56;5031232;28;70608;-43
2024/02/01 00:33:13;;;;;;;17.98;10.55;;;;;;;29.58;69.88;101431.34;5041972;28;66020;-43
2024/02/01 00:35:45;;;;;;;25.73;10.50;;;;;;;29.62;67.74;101440.75;5037437;28;70444;-44
2024/02/01 00:38:16;;;;;;;21.90;10.55;;;;;;;29.60;70.26;101438.22;5042647;28;66384;-45
2024/02/01 00:40:46;;;;;;;16.35;10.20;;;;;;;29.53;69.46;101415.75;5023155;28;69263;-44
2024/02/01 00:43:17;;;;;;;16.08;10.38;;;;;;;29.66;67.97;101435.78;5040880;28;66249;-44
2024/02/01 00:45:47;;;;;;;17.73;10.98;;;;;;;29.62;70.33;101438.88;5025979;28;69748;-43
2024/02/01 00:48:18;;;;;;;15.35;10.88;;;;;;;29.67;71.02;101443.72;5033678;28;65106;-43
2024/02/01 00:50:50;;;;;;;15.70;10.77;;;;;;;29.68;71.40;101453.50;5030665;28;70947;-44
2024/02/01 00:53:23;;;;;;;10.27;9.27;;;;;;;29.71;71.17;101455.78;5012227;28;65381;-45
2024/02/01 00:55:54;;;;;;;10.95;9.35;;;;;;;29.70;71.55;101454.13;5022219;28;69943;-44
2024/02/01 00:58:25;;;;;;;16.27;9.50;;;;;;;29.62;71.31;101446.16;5041495;28;66733;-44
2024/02/01 01:00:55;;;;;;;9.50;8.48;;;;;;;29.69;70.56;101452.44;4998529;28;69264;-45
2024/02/01 01:03:27;;;;;;;14.10;9.23;;;;;;;29.75;70.95;101467.03;5016493;28;65731;-45
2024/02/01 01:05:57;;;;;;;10.30;8.70;;;;;;;29.78;67.04;101467.50;5019902;28;71271;-43
2024/02/01 01:08:28;;;;;;;8.75;7.82;;;;;;;29.43;66.15;101414.41;5021678;28;66356;-42
2024/02/01 01:10:58;;;;;;;7.68;7.07;;;;;;;29.76;66.20;101477.69;5027956;28;70301;-43
2024/02/01 01:13:30;;;;;;;10.68;6.80;;;;;;;29.78;66.11;101486.44;5022942;28;66786;-43
2024/02/01 01:16:00;;;;;;;6.85;6.28;;;;;;;29.81;65.56;101487.88;5045633;28;70160;-43
2024/02/01 01:18:31;;;;;;;10.85;7.22;;;;;;;29.83;65.64;101497.47;5039332;28;65657;-44
2024/02/01 01:21:02;;;;;;;8.23;7.15;;;;;;;29.84;65.45;101499.16;5043983;28;70626;-42
2024/02/01 01:23:33;;;;;;;9.07;7.50;;;;;;;29.87;65.73;101502.50;5038926;28;66519;-42
2024/02/01 01:26:04;;;;;;;7.47;6.75;;;;;;;29.89;65.10;101506.66;5022897;28;70012;-43
2024/02/01 01:28:35;;;;;;;7.40;6.80;;;;;;;29.89;65.59;101495.00;5028051;28;66393;-42
2024/02/01 01:31:05;;;;;;;6.68;6.05;;;;;;;29.92;65.01;101505.41;5018574;28;70705;-42
2024/02/01 01:33:36;;;;;;;6.53;5.93;;;;;;;29.84;64.97;101493.75;5028668;28;66370;-43
2024/02/01 01:36:07;;;;;;;7.68;6.18;;;;;;;29.95;65.47;101515.84;5055830;28;69678;-43
2024/02/01 01:38:38;;;;;;;7.85;7.03;;;;;;;29.95;64.93;101511.28;5037632;28;67201;-42
2024/02/01 01:41:08;;;;;;;7.45;6.85;;;;;;;29.97;64.88;101514.59;5028124;28;70700;-42
2024/02/01 01:43:39;;;;;;;8.10;6.93;;;;;;;29.95;65.30;101510.44;5026548;28;66854;-43
2024/02/01 01:46:10;;;;;;;6.25;5.75;;;;;;;29.68;65.19;101458.06;5027321;28;70184;-43
2024/02/01 01:48:41;;;;;;;6.53;6.05;;;;;;;29.71;64.79;101476.59;5039683;28;67241;-43
2024/02/01 01:51:13;;;;;;;7.37;6.23;;;;;;;30.01;65.01;101515.91;5028367;28;70490;-43
2024/02/01 01:53:46;;;;;;;6.63;6.03;;;;;;;30.03;64.87;101513.84;5023939;28;65962;-43
2024/02/01 01:56:18;;;;;;;7.05;6.05;;;;;;;29.96;65.16;101506.72;5028777;28;69567;-43
2024/02/01 01:58:51;;;;;;;6.53;5.93;;;;;;;29.99;65.05;101507.13;5041396;28;66018;-43
2024/02/01 02:01:22;;;;;;;6.45;5.82;;;;;;;30.08;65.12;101521.34;5030369;28;70089;-43
2024/02/01 02:03:56;;;;;;;5.90;5.50;;;;;;;29.96;64.89;101482.38;5030083;28;66465;-43
2024/02/01 02:06:28;;;;;;;6.38;5.75;;;;;;;30.10;64.75;101513.88;5034263;28;70624;-43
2024/02/01 02:09:00;;;;;;;5.97;5.57;;;;;;;30.11;64.49;101520.94;5036051;28;66851;-44
2024/02/01 02:11:32;;;;;;;6.75;6.25;;;;;;;30.13;65.01;101518.88;5030742;28;70385;-43
2024/02/01 02:14:02;;;;;;;;;;;;;;;29.82;66.06;101520.16;5033747;28;66612;-43
2024/02/01 02:16:36;;;;;;;6.45;5.72;;;;;;;30.04;65.00;101506.56;5036123;28;70133;-43
2024/02/01 02:19:11;;;;;;;6.20;5.72;;;;;;;30.16;64.49;101523.03;5040359;28;65985;-43
2024/02/01 02:21:49;;;;;;;6.43;5.82;;;;;;;30.20;64.87;101524.31;5049453;28;69560;-42
2024/02/01 02:24:21;;;;;;;6.03;5.53;;;;;;;30.21;64.31;101521.41;5030686;28;66851;-42
2024/02/01 02:26:51;;;;;;;6.82;6.18;;;;;;;30.21;64.76;101521.41;5024309;28;69821;-43
2024/02/01 02:29:22;;;;;;;12.38;5.75;;;;;;;30.23;64.49;101513.97;5035296;28;65923;-43
2024/02/01 02:31:53;;;;;;;5.70;5.30;;;;;;;30.15;64.43;101495.16;5021493;28;70209;-43
2024/02/01 02:34:24;;;;;;;7.03;5.80;;;;;;;30.26;64.28;101510.84;5031763;28;67230;-43
2024/02/01 02:36:55;;;;;;;6.23;5.73;;;;;;;30.27;64.88;101509.81;5024403;28;70112;-42
2024/02/01 02:39:25;;;;;;;6.38;5.57;;;;;;;30.31;64.73;101506.69;5033345;28;66224;-43
2024/02/01 02:41:56;;;;;;;6.55;5.95;;;;;;;30.33;64.72;101512.75;5031596;28;71230;-43
2024/02/01 02:44:26;;;;;;;6.60;5.28;;;;;;;30.34;64.59;101498.16;5037578;28;66328;-43
2024/02/01 02:46:57;;;;;;;5.80;5.40;;;;;;;30.36;64.63;101512.34;5040972;28;70251;-43
2024/02/01 02:49:28;;;;;;;5.50;5.10;;;;;;;30.31;64.16;101494.00;5035504;28;65810;-42
2024/02/01 02:51:59;;;;;;;6.10;5.60;;;;;;;30.32;64.53;101500.25;5029308;28;69746;-42
2024/02/01 02:54:30;;;;;;;6.17;5.57;;;;;;;30.07;64.40;101449.34;5039917;28;66704;-42
2024/02/01 02:57:01;;;;;;;5.57;5.20;;;;;;;30.42;64.46;101506.13;5043389;28;71002;-43
2024/02/01 02:59:31;;;;;;;5.32;4.90;;;;;;;30.38;64.25;101494.03;5021274;28;66647;-43
2024/02/01 03:02:06;;;;;;;5.50;5.10;;;;;;;30.47;63.98;101503.66;5029486;28;70158;-43
2024/02/01 03:04:37;;;;;;;6.13;5.43;;;;;;;30.43;64.45;101497.81;5040278;28;66985;-43
2024/02/01 03:07:08;;;;;;;5.65;5.32;;;;;;;30.49;64.49;101496.16;5038672;28;69982;-43
2024/02/01 03:09:39;;;;;;;6.45;5.82;;;;;;;30.53;64.57;101497.41;5020060;28;66636;-43
2024/02/01 03:12:10;;;;;;;5.97;5.57;;;;;;;30.55;64.00;101498.03;5052615;28;69189;-43
2024/02/01 03:14:41;;;;;;;6.43;5.93;;;;;;;30.53;64.45;101492.00;5027473;28;65373;-43
2024/02/01 03:17:12;;;;;;;5.90;5.40;;;;;;;30.59;64.09;101499.31;5023206;28;70336;-43
2024/02/01 03:19:47;;;;;;;5.97;5.57;;;;;;;30.58;64.04;101494.94;5028234;28;66064;-42
2024/02/01 03:22:19;;;;;;;5.38;4.97;;;;;;;30.50;63.90;101470.75;5030999;28;69941;-43
2024/02/01 03:24:58;;;;;;;5.70;5.20;;;;;;;30.32;63.75;101436.13;5031120;28;67365;-43
2024/02/01 03:27:32;;;;;;;5.90;5.30;;;;;;;30.65;63.86;101484.97;5034551;28;70901;-45
2024/02/01 03:30:04;;;;;;;6.47;5.88;;;;;;;30.68;64.15;101475.59;5036509;28;65439;-43
2024/02/01 03:32:36;;;;;;;5.90;5.50;;;;;;;30.57;64.07;101449.13;5007347;28;70159;-41
2024/02/01 03:35:08;;;;;;;;;;;;;;;30.44;65.01;101468.84;5037133;28;66187;-42
2024/02/01 03:37:40;;;;;;;5.88;5.32;;;;;;;30.68;64.23;101464.78;5022570;28;70416;-44
2024/02/01 03:40:14;;;;;;;5.45;5.10;;;;;;;30.72;63.54;101464.13;5028861;28;66263;-42
2024/02/01 03:42:47;;;;;;;5.63;5.13;;;;;;;30.77;64.04;101454.56;5034528;28;70520;-42
2024/02/01 03:45:18;;;;;;;5.75;5.25;;;;;;;30.71;63.88;101435.41;5033346;28;66265;-42
2024/02/01 03:47:49;;;;;;;6.63;5.10;;;;;;;30.85;63.93;101443.56;5038548;28;69341;-43
2024/02/01 03:50:19;;;;;;;5.90;5.45;;;;;;;30.85;63.49;101446.28;5021299;28;66618;-42
2024/02/01 03:52:50;;;;;;;5.80;5.32;;;;;;;30.87;63.87;101439.63;5038009;28;70261;-43
2024/02/01 03:55:21;;;;;;;5.70;5.28;;;;;;;30.90;63.73;101441.09;5030973;28;66218;-42
2024/02/01 03:57:52;;;;;;;6.10;5.63;;;;;;;30.93;63.59;101438.78;5035204;28;69042;-42
2024/02/01 04:00:28;;;;;;;6.15;5.65;;;;;;;30.94;63.36;101428.78;5032777;28;66221;-42
2024/02/01 04:03:03;;;;;;;5.70;5.20;;;;;;;30.88;63.39;101411.47;5045107;28;70491;-42
2024/02/01 04:05:37;;;;;;;5.60;5.22;;;;;;;30.95;63.57;101425.00;5035630;28;66287;-43
2024/02/01 04:08:08;;;;;;;5.68;5.18;;;;;;;31.00;63.64;101422.53;5028009;28;70295;-42
2024/02/01 04:10:39;;;;;;;5.72;5.30;;;;;;;31.02;63.46;101417.72;5023940;28;65388;-43
2024/02/01 04:13:10;;;;;;;6.00;5.60;;;;;;;31.05;63.40;101409.19;5024618;28;69795;-43
2024/02/01 04:15:42;;;;;;;6.00;5.53;;;;;;;30.99;63.49;101395.66;5018566;28;65533;-43
2024/02/01 04:18:13;;;;;;;5.38;4.93;;;;;;;31.10;63.46;101403.97;5032300;28;70099;-43
2024/02/01 04:20:44;;;;;;;6.57;5.03;;;;;;;31.02;63.60;101385.22;5027746;28;65896;-44
2024/02/01 04:23:16;;;;;;;5.65;5.25;;;;;;;31.13;63.38;101394.59;5040073;28;70485;-44
2024/02/01 04:25:48;;;;;;;5.53;5.03;;;;;;;31.15;63.31;101398.78;5023405;28;66068;-43
2024/02/01 04:28:19;;;;;;;6.07;5.45;;;;;;;31.15;63.25;101387.09;5048227;28;70502;-48
2024/02/01 04:30:53;;;;;;;6.90;6.22;;;;;;;31.09;64.01;101380.66;5041463;28;65725;-43
2024/02/01 04:33:24;;;;;;;7.68;6.72;;;;;;;30.96;60.92;101379.81;5031594;28;69630;-44
2024/02/01 04:35:55;;;;;;;6.72;6.05;;;;;;;30.68;59.21;101375.41;5031212;28;67567;-47
2024/02/01 04:38:26;;;;;;;6.80;6.20;;;;;;;30.34;58.34;101346.59;5038847;28;70818;-47
2024/02/01 04:40:57;;;;;;;10.50;6.43;;;;;;;30.45;59.67;101364.94;5027440;28;66388;-42
2024/02/01 04:43:27;;;;;;;6.80;6.20;;;;;;;30.33;59.18;101361.19;5033356;28;70684;-45
2024/02/01 04:45:58;;;;;;;7.40;5.97;;;;;;;30.19;58.19;101344.06;5031640;28;66481;-44
2024/02/01 04:48:29;;;;;;;7.45;6.13;;;;;;;30.01;57.34;101328.41;5035416;28;70297;-43
2024/02/01 04:51:00;;;;;;;13.00;6.50;;;;;;;29.53;57.34;101258.97;5026733;28;66654;-43
2024/02/01 04:53:30;;;;;;;12.98;6.75;;;;;;;29.92;56.46;101337.72;5018064;28;69440;-43
2024/02/01 04:56:01;;;;;;;8.27;5.68;;;;;;;29.89;55.91;101338.13;5020588;28;66626;-46
2024/02/01 04:58:32;;;;;;;17.13;7.15;;;;;;;29.73;55.86;101323.94;5067529;28;69936;-42
2024/02/01 05:01:09;;;;;;;10.18;6.68;;;;;;;29.68;55.94;101329.13;5053644;28;66487;-44
2024/02/01 05:03:40;;;;;;;13.43;6.68;;;;;;;29.47;55.38;101303.00;5028174;28;70571;-43
2024/02/01 05:06:11;;;;;;;6.25;5.65;;;;;;;29.55;54.52;101315.50;5040474;28;65774;-43
2024/02/01 05:08:42;;;;;;;7.90;6.07;;;;;;;29.49;54.44;101305.50;5060812;28;69793;-43
2024/02/01 05:11:12;;;;;;;10.60;5.75;;;;;;;29.33;54.48;101296.69;5058911;28;65428;-44
2024/02/01 05:13:43;;;;;;;6.55;6.00;;;;;;;29.38;54.05;101302.31;5041169;28;69883;-42
2024/02/01 05:16:14;;;;;;;7.38;5.90;;;;;;;29.36;53.82;101299.00;5030066;28;66522;-43
2024/02/01 05:18:45;;;;;;;17.88;6.00;;;;;;;29.26;53.36;101287.72;5028166;28;70683;-41
2024/02/01 05:21:17;;;;;;;14.88;6.10;;;;;;;29.15;53.08;101262.09;5033810;28;65793;-43
2024/02/01 05:23:49;;;;;;;8.32;6.00;;;;;;;29.29;53.72;101281.91;5040169;28;69734;-48
2024/02/01 05:26:22;;;;;;;9.05;6.45;;;;;;;29.22;53.07;101278.34;5035067;28;65880;-44
2024/02/01 05:28:53;;;;;;;6.05;5.53;;;;;;;29.21;53.45;101271.28;5056751;28;69176;-43
2024/02/01 05:31:26;;;;;;;6.43;5.93;;;;;;;29.06;53.08;101243.53;5049547;28;65165;-42
2024/02/01 05:33:57;;;;;;;11.50;5.75;;;;;;;29.11;53.35;101255.44;5038636;28;70259;-45
2024/02/01 05:36:28;;;;;;;15.98;6.05;;;;;;;29.17;53.04;101248.41;5035750;28;67038;-44
2024/02/01 05:38:59;;;;;;;7.60;6.00;;;;;;;29.10;52.71;101247.53;5022621;28;69961;-43
2024/02/01 05:41:30;;;;;;;6.68;6.15;;;;;;;29.15;52.69;101250.47;5029135;28;66414;-46
2024/02/01 05:44:00;;;;;;;7.05;5.85;;;;;;;29.14;52.65;101238.84;5040215;28;71221;-43
2024/02/01 05:46:31;;;;;;;13.80;6.22;;;;;;;29.12;52.73;101240.06;5043990;28;66330;-42
2024/02/01 05:49:02;;;;;;;14.65;6.20;;;;;;;29.02;52.36;101234.16;5037031;28;69996;-42
2024/02/01 05:51:33;;;;;;;9.15;5.32;;;;;;;29.10;52.46;101237.53;5029585;28;66149;-43
2024/02/01 05:54:06;;;;;;;8.35;5.95;;;;;;;29.11;52.16;101232.97;5036792;28;70052;-41
2024/02/01 05:56:37;;;;;;;11.98;6.25;;;;;;;29.10;52.50;101226.75;5027596;28;66430;-42
2024/02/01 05:59:07;;;;;;;8.65;6.63;;;;;;;29.07;51.79;101216.34;5041615;28;70087;-43
2024/02/01 06:01:43;;;;;;;9.45;6.25;;;;;;;28.89;51.51;101187.16;5039081;28;66642;-44
2024/02/01 06:04:15;;;;;;;7.88;6.60;;;;;;;29.08;51.82;101207.19;5058241;28;70412;-42
2024/02/01 06:06:48;;;;;;;;;;;;;;;28.95;51.35;101205.25;5056677;28;66229;-43
2024/02/01 06:09:19;;;;;;;12.30;6.43;;;;;;;29.11;51.51;101200.56;5067154;27;70624;-43
2024/02/01 06:11:49;;;;;;;8.32;5.95;;;;;;;29.10;51.88;101191.63;5025099;28;65751;-42
2024/02/01 06:14:20;;;;;;;12.57;6.95;;;;;;;29.15;52.08;101180.22;5037379;28;69794;-43
2024/02/01 06:16:50;;;;;;;7.22;6.55;;;;;;;29.14;52.44;101175.84;5028013;28;66236;-44
2024/02/01 06:19:21;;;;;;;23.58;6.60;;;;;;;28.88;52.18;101115.25;5040376;28;70060;-43
2024/02/01 06:21:52;;;;;;;10.13;6.35;;;;;;;29.13;52.20;101161.50;5041516;28;65664;-43
2024/02/01 06:24:23;;;;;;;6.95;6.35;;;;;;;29.24;52.51;101168.19;5040537;28;71432;-43
2024/02/01 06:26:55;;;;;;;12.73;6.80;;;;;;;29.26;52.50;101155.34;5035024;28;66465;-45
2024/02/01 06:29:26;;;;;;;7.43;6.68;;;;;;;29.17;52.51;101143.03;5023942;28;70122;-43
2024/02/01 06:31:57;;;;;;;6.78;6.18;;;;;;;29.18;52.74;101133.91;5049695;28;64784;-42
2024/02/01 06:34:38;;;;;;;8.60;6.07;;;;;;;29.28;52.75;101147.00;5043434;28;70526;-43
2024/02/01 06:37:09;;;;;;;7.67;6.17;;;;;;;29.30;52.42;101140.38;5039040;28;66017;-48
2024/02/01 06:39:48;;;;;;;11.27;6.50;;;;;;;29.31;52.58;101142.06;5040945;28;70198;-45
2024/02/01 06:42:24;;;;;;;7.18;6.47;;;;;;;29.19;52.74;101116.63;5056875;28;65798;-44
2024/02/01 06:45:08;;;;;;;10.02;6.13;;;;;;;29.32;52.11;101135.59;5031166;28;69371;-45
2024/02/01 06:47:46;;;;;;;6.88;5.95;;;;;;;29.32;52.63;101129.38;5032978;28;65695;-45
2024/02/01 06:50:34;;;;;;;6.75;6.25;;;;;;;29.36;52.84;101126.06;5042283;28;70105;-44
2024/02/01 06:53:19;;;;;;;6.60;6.00;;;;;;;29.30;52.90;101104.41;5041292;28;65476;-44
2024/02/01 06:56:18;;;;;;;15.10;6.72;;;;;;;29.42;52.84;101110.91;5035873;28;70396;-42
2024/02/01 06:58:56;;;;;;;7.22;6.60;;;;;;;29.39;52.41;101095.94;5047900;28;66493;-43
2024/02/01 07:01:51;;;;;;;6.75;6.15;;;;;;;29.44;52.73;101103.41;5061324;28;70352;-42
2024/02/01 07:04:31;;;;;;;7.25;6.65;;;;;;;29.46;52.75;101093.22;5027790;28;66713;-42
2024/02/01 07:07:17;;;;;;;10.48;6.50;;;;;;;29.58;52.87;101093.44;5036220;28;70258;-47
2024/02/01 07:09:58;;;;;;;9.48;6.30;;;;;;;29.72;52.81;101084.31;5041741;28;66378;-43
2024/02/01 07:12:40;;;;;;;6.80;6.20;;;;;;;29.75;53.34;101067.69;5069021;28;70425;-43
2024/02/01 07:15:30;;;;;;;7.15;5.80;;;;;;;30.03;53.89;101090.97;5042694;28;66271;-43
2024/02/01 07:18:43;;;;;;;7.33;6.73;;;;;;;30.06;53.59;101074.31;5033146;28;70431;-43
2024/02/01 07:21:09;;;;;;;7.57;6.10;;;;;;;30.23;54.12;101081.00;5048930;28;66653;-42
2024/02/01 07:23:56;;;;;;;6.53;5.97;;;;;;;30.25;54.19;101062.66;5030362;28;69629;-44
2024/02/01 07:26:54;;;;;;;8.82;6.95;;;;;;;30.43;54.42;101074.72;5055662;28;66597;-43
2024/02/01 07:58:00;;;;;;;10.35;6.38;;;;;;;31.10;56.12;101065.28;5033734;28;70558;-43
2024/02/01 08:00:33;;;;;;;9.80;6.25;;;;;;;31.21;56.19;101073.75;5025307;28;66072;-44
2024/02/01 08:09:12;;;;;;;9.75;5.88;;;;;;;31.23;57.09;101052.69;5023919;28;69932;-42
2024/02/01 08:11:43;;;;;;;11.88;5.38;;;;;;;31.36;57.19;101068.88;5025393;28;67003;-42
2024/02/01 08:14:14;;;;;;;6.32;5.63;;;;;;;31.39;57.51;101068.44;5024024;28;69690;-43
2024/02/01 08:16:46;;;;;;;11.03;4.80;;;;;;;31.37;57.58;101065.13;5028489;28;65749;-42
2024/02/01 08:19:20;;;;;;;4.85;4.40;;;;;;;31.35;57.43;101051.75;5037868;28;70824;-42
2024/02/01 08:22:08;;;;;;;7.22;5.20;;;;;;;31.46;57.23;101063.81;5026785;28;65583;-43
2024/02/01 08:24:39;;;;;;;12.50;4.85;;;;;;;31.53;57.99;101063.75;5027665;28;70031;-43
2024/02/01 08:27:14;;;;;;;4.30;3.90;;;;;;;31.57;57.80;101065.81;5031045;28;65617;-44
2024/02/01 08:29:47;;;;;;;16.60;4.93;;;;;;;31.66;57.89;101069.09;5021026;28;69130;-43
2024/02/01 08:32:19;;;;;;;12.60;5.05;;;;;;;31.43;57.94;101031.72;5048981;28;66068;-43
2024/02/01 08:34:50;;;;;;;6.45;4.30;;;;;;;31.66;57.84;101069.09;5029873;28;68994;-43
2024/02/01 08:37:20;;;;;;;8.73;4.22;;;;;;;31.75;58.24;101078.59;5025703;28;66132;-43
2024/02/01 08:39:51;;;;;;;4.85;4.40;;;;;;;31.77;58.31;101081.09;5027758;28;69777;-44
2024/02/01 08:42:29;;;;;;;12.48;4.43;;;;;;;31.80;58.28;101080.66;5034712;28;66619;-43
2024/02/01 08:45:03;;;;;;;8.88;4.40;;;;;;;31.84;58.25;101081.84;5039022;28;70274;-43
2024/02/01 08:47:36;;;;;;;7.22;3.78;;;;;;;31.82;58.04;101079.38;5029146;28;65850;-43
2024/02/01 08:50:09;;;;;;;6.32;3.92;;;;;;;31.79;58.26;101062.72;5020944;28;70473;-43
2024/02/01 08:52:47;;;;;;;6.57;3.80;;;;;;;31.89;58.46;101081.19;5044090;28;66266;-43
2024/02/01 08:55:18;;;;;;;5.18;3.85;;;;;;;31.90;58.64;101083.69;5045304;28;70117;-43
2024/02/01 08:57:49;;;;;;;8.00;3.30;;;;;;;31.91;58.53;101088.09;5031723;28;66543;-44
2024/02/01 09:00:35;;;;;;;4.95;3.90;;;;;;;31.94;58.69;101098.50;5043283;28;70406;-43
2024/02/01 09:03:10;;;;;;;6.05;4.65;;;;;;;31.93;58.56;101096.84;5022616;28;66500;-44
2024/02/01 09:05:46;;;;;;;8.35;3.95;;;;;;;31.65;58.52;101051.16;5027373;28;69734;-44
2024/02/01 09:08:24;;;;;;;5.28;3.65;;;;;;;32.05;58.25;101105.09;5025110;28;66599;-47
2024/02/01 09:10:58;;;;;;;4.80;3.40;;;;;;;32.04;58.67;101098.00;5024243;28;70269;-43
2024/02/01 09:13:37;;;;;;;;;;;;;;;31.78;58.74;101071.91;5041662;28;66225;-44
2024/02/01 09:16:13;;;;;;;6.82;3.40;;;;;;;32.10;58.68;101101.72;5025568;28;69941;-43
2024/02/01 09:18:49;;;;;;;9.43;4.13;;;;;;;31.85;58.73;101067.25;5031872;28;65831;-43
2024/02/01 09:21:21;;;;;;;5.15;3.67;;;;;;;31.74;58.87;101049.00;5046124;28;70128;-45
2024/02/01 09:24:00;;;;;;;6.88;3.90;;;;;;;32.11;58.75;101108.78;5037330;28;66454;-43
2024/02/01 09:26:31;;;;;;;8.50;3.90;;;;;;;32.17;58.78;101113.31;5046383;28;69937;-44
2024/02/01 09:29:11;;;;;;;5.70;3.53;;;;;;;32.15;58.87;101112.69;5022475;28;66370;-44
2024/02/01 09:31:43;;;;;;;6.80;3.60;;;;;;;32.18;58.81;101117.69;5026268;28;69711;-43
2024/02/01 09:34:16;;;;;;;9.43;3.40;;;;;;;32.19;58.64;101117.47;5024401;28;65988;-47
2024/02/01 09:36:50;;;;;;;4.00;3.60;;;;;;;32.20;58.69;101108.25;5035133;28;70133;-44
2024/02/01 09:39:21;;;;;;;7.13;4.13;;;;;;;32.19;58.71;101112.03;5025619;28;66249;-43
2024/02/01 09:41:54;;;;;;;5.35;3.67;;;;;;;32.19;58.89;101113.94;5027434;28;69617;-42
2024/02/01 09:44:26;;;;;;;8.82;4.65;;;;;;;32.21;58.98;101123.50;5029205;28;66478;-44
2024/02/01 09:46:57;;;;;;;7.10;3.70;;;;;;;32.23;59.08;101129.56;5026915;28;70534;-44
2024/02/01 09:49:28;;;;;;;6.20;3.85;;;;;;;32.19;59.29;101119.34;5027805;28;66099;-46
2024/02/01 09:52:01;;;;;;;7.07;3.30;;;;;;;32.24;59.17;101127.66;5055687;28;69395;-44
2024/02/01 09:54:32;;;;;;;4.55;3.53;;;;;;;32.35;58.72;101132.34;5047937;28;66539;-44
2024/02/01 09:57:14;;;;;;;3.42;3.13;;;;;;;32.25;58.73;101094.84;5045729;28;69493;-43
2024/02/01 09:59:45;;;;;;;4.43;3.38;;;;;;;32.49;58.50;101123.03;5032947;28;66560;-43
2024/02/01 10:02:16;;;;;;;3.53;3.22;;;;;;;32.58;58.35;101136.31;5041795;28;70589;-43
2024/02/01 10:04:51;;;;;;;4.25;3.30;;;;;;;32.61;58.40;101141.28;5038172;28;66704;-43
2024/02/01 10:07:21;;;;;;;3.90;3.30;;;;;;;32.63;58.38;101131.03;5030709;28;70412;-43
2024/02/01 10:09:52;;;;;;;5.55;3.25;;;;;;;32.69;58.19;101132.84;5028207;28;66458;-43
2024/02/01 10:12:25;;;;;;;6.63;3.78;;;;;;;32.70;58.38;101132.59;5033451;28;70327;-43
2024/02/01 10:14:57;;;;;;;4.25;3.85;;;;;;;32.68;58.89;101131.16;5037730;28;65797;-42
2024/02/01 10:17:28;;;;;;;6.85;3.70;;;;;;;32.71;58.74;101136.19;5028436;28;70045;-43
2024/02/01 10:19:59;;;;;;;8.25;3.95;;;;;;;32.69;59.11;101133.69;5031978;28;66188;-42
2024/02/01 10:22:32;;;;;;;9.13;3.58;;;;;;;32.74;59.17;101138.44;5026039;28;70031;-43
2024/02/01 10:25:03;;;;;;;3.75;3.45;;;;;;;32.74;59.38;101141.16;5020162;28;66469;-43
2024/02/01 10:27:39;;;;;;;6.25;3.92;;;;;;;32.77;59.13;101148.84;5021522;28;69980;-43
2024/02/01 10:30:12;;;;;;;5.88;3.70;;;;;;;32.78;59.22;101142.34;5040231;28;65690;-44
2024/02/01 10:32:46;;;;;;;6.60;4.45;;;;;;;32.68;60.35;101133.88;5023058;28;70221;-43
2024/02/01 10:35:19;;;;;;;6.22;4.20;;;;;;;32.49;58.91;101090.47;5025552;28;66647;-43
2024/02/01 10:37:53;;;;;;;5.35;4.15;;;;;;;32.81;60.80;101158.19;5028130;28;69692;-44
2024/02/01 10:40:29;;;;;;;7.80;4.00;;;;;;;32.61;59.38;101135.88;5019901;28;65040;-43
2024/02/01 10:43:00;;;;;;;7.55;3.88;;;;;;;32.60;59.87;101158.66;5035095;28;69918;-43
2024/02/01 10:45:37;;;;;;;11.93;4.03;;;;;;;32.49;60.42;101163.78;5032724;28;66313;-44
2024/02/01 10:48:13;;;;;;;5.93;3.63;;;;;;;32.36;60.76;101150.28;5027773;28;70392;-44
2024/02/01 10:50:46;;;;;;;3.60;3.30;;;;;;;32.38;60.58;101164.47;5037064;28;66540;-44
2024/02/01 10:53:19;;;;;;;6.57;3.58;;;;;;;32.37;60.72;101170.94;5023026;28;69830;-44
2024/02/01 10:55:52;;;;;;;3.35;3.05;;;;;;;32.32;61.00;101168.09;5049120;28;66637;-44
2024/02/01 10:58:23;;;;;;;4.50;3.58;;;;;;;32.30;61.13;101170.19;5029309;28;69562;-45
2024/02/01 11:00:54;;;;;;;4.30;3.92;;;;;;;32.27;61.15;101170.66;5022075;28;66796;-44
2024/02/01 11:03:27;;;;;;;12.52;3.78;;;;;;;32.22;61.22;101167.75;5023803;28;70173;-45
2024/02/01 11:05:58;;;;;;;6.15;3.92;;;;;;;32.26;61.35;101182.53;5022076;28;66364;-44
2024/02/01 11:08:33;;;;;;;7.97;3.13;;;;;;;32.22;61.57;101192.19;5047155;28;71129;-45
2024/02/01 11:11:17;;;;;;;7.28;3.85;;;;;;;32.21;61.89;101185.13;5048310;28;66153;-43
2024/02/01 11:13:51;;;;;;;;;;;;;;;31.95;63.30;101194.28;5029173;28;69676;-43
2024/02/01 11:16:49;;;;;;;5.57;3.92;;;;;;;32.14;62.56;101195.19;5092160;27;42997;-42
2024/02/01 11:19:23;;;;;;;5.57;4.13;;;;;;;32.07;61.99;101172.69;5054120;28;70218;-42
2024/02/01 11:22:11;;;;;;;4.82;4.43;;;;;;;31.45;62.58;101088.44;5057286;28;66077;-43
2024/02/01 11:24:43;;;;;;;6.43;4.22;;;;;;;32.04;61.73;101185.66;5075534;27;70259;-41
2024/02/01 11:27:15;;;;;;;4.40;4.10;;;;;;;32.16;62.26;101209.38;5067424;28;65820;-43
2024/02/01 11:29:55;;;;;;;8.18;3.95;;;;;;;32.12;62.52;101208.97;5060559;28;70526;-43
2024/02/01 11:32:33;;;;;;;5.20;4.50;;;;;;;32.10;63.21;101199.41;5060164;28;65342;-43
2024/02/01 11:35:10;;;;;;;4.93;4.03;;;;;;;32.20;61.54;101199.72;5075891;27;69179;-43
2024/02/01 11:37:41;;;;;;;5.00;4.43;;;;;;;32.35;61.34;101213.81;5076283;27;65461;-43
2024/02/01 11:40:15;;;;;;;4.53;4.10;;;;;;;32.37;61.09;101208.13;5077664;27;69153;-43
2024/02/01 11:42:47;;;;;;;6.80;4.57;;;;;;;32.41;61.10;101204.75;5071770;28;65943;-44
2024/02/01 11:45:20;;;;;;;5.45;4.32;;;;;;;32.42;60.87;101206.41;5075022;28;69456;-42
2024/02/01 11:47:53;;;;;;;4.88;4.32;;;;;;;32.49;60.96;101220.81;5064854;28;65824;-43
2024/02/01 11:50:24;;;;;;;8.20;4.82;;;;;;;32.53;60.94;101225.78;5062312;28;70908;-42
2024/02/01 11:53:06;;;;;;;4.88;4.38;;;;;;;32.51;60.99;101222.44;5064022;28;65864;-44
2024/02/01 11:55:39;;;;;;;5.22;4.47;;;;;;;32.53;60.95;101226.59;5066432;28;69869;-43
2024/02/01 11:58:12;;;;;;;5.10;4.60;;;;;;;32.56;60.69;101228.03;5072897;28;66323;-42
2024/02/01 12:00:44;;;;;;;5.13;4.65;;;;;;;32.58;60.98;101228.66;5066034;28;70453;-42
2024/02/01 12:03:37;;;;;;;;;;;;;;;32.32;62.16;101230.53;5066976;28;66179;-43
2024/02/01 12:06:08;;;;;;;4.82;4.43;;;;;;;32.46;60.61;101231.28;5060407;28;69076;-41
2024/02/01 12:08:38;;;;;;;5.40;4.53;;;;;;;32.55;60.71;101245.41;5061074;27;65916;-42
2024/02/01 12:11:09;;;;;;;6.03;4.30;;;;;;;32.56;61.04;101241.63;5069875;28;69417;-43
2024/02/01 12:13:46;;;;;;;6.03;4.65;;;;;;;32.53;60.63;101242.91;5065761;27;65220;-43
2024/02/01 12:16:30;;;;;;;8.82;4.43;;;;;;;32.52;61.46;101251.28;5069365;28;69612;-43
2024/02/01 12:19:01;;;;;;;6.50;4.40;;;;;;;32.52;61.01;101245.84;5068017;28;66140;-43
2024/02/01 12:21:34;;;;;;;4.70;4.30;;;;;;;32.40;60.88;101238.41;5073339;27;69834;-43
2024/02/01 12:24:06;;;;;;;6.05;4.82;;;;;;;32.51;61.00;101255.84;5069269;28;66180;-44
2024/02/01 12:26:37;;;;;;;5.40;4.90;;;;;;;32.44;60.84;101244.22;5030550;28;70748;-42